Time;durP1;ratioP1;P1;durP2;ratioP2;P2;SDS_P1;SDS_P2;PMS_P1;PMS_P2;Temp;Humidity;BMP_temperature;BMP_pressure;BME280_temperature;BME280_humidity;BME280_pressure;Samples;Min_cycle;Max_cycle;Signal;HPM_P1;HPM_P2
2022/06/07 00:02:19;;;;;;;0.40;0.40;;;17.60;1.00;;;;;;5072696;28;20746;-78
2022/06/07 00:04:45;;;;;;;0.40;0.40;;;17.50;1.00;;;;;;5072953;28;20206;-79
2022/06/07 00:07:11;;;;;;;0.40;0.40;;;17.50;1.00;;;;;;5073344;28;20175;-78
2022/06/07 00:09:36;;;;;;;0.30;0.30;;;17.40;1.00;;;;;;5067938;28;20182;-79
2022/06/07 00:12:03;;;;;;;0.37;0.37;;;17.40;1.00;;;;;;5072664;28;20801;-78
2022/06/07 00:14:34;;;;;;;0.40;0.40;;;17.30;1.00;;;;;;5072593;28;20266;-79
2022/06/07 00:17:00;;;;;;;0.40;0.40;;;17.30;1.00;;;;;;5072824;28;20190;-78
2022/06/07 00:19:26;;;;;;;0.30;0.30;;;17.30;1.00;;;;;;5072522;28;20245;-78
2022/06/07 00:21:52;;;;;;;0.40;0.40;;;17.30;99.90;;;;;;5072699;28;20697;-78
2022/06/07 00:24:17;;;;;;;0.30;0.30;;;17.30;1.00;;;;;;5073125;28;20219;-79
2022/06/07 00:26:43;;;;;;;0.30;0.30;;;17.30;1.00;;;;;;5072305;28;20314;-78
2022/06/07 00:29:09;;;;;;;0.40;0.40;;;17.30;1.00;;;;;;5072410;28;20186;-78
2022/06/07 00:31:39;;;;;;;0.40;0.40;;;17.20;1.00;;;;;;5072921;28;20624;-79
2022/06/07 00:34:05;;;;;;;0.40;0.40;;;17.30;1.00;;;;;;5072850;28;20182;-79
2022/06/07 00:36:31;;;;;;;0.40;0.40;;;17.30;1.00;;;;;;5072561;28;20258;-79
2022/06/07 00:38:57;;;;;;;0.43;0.43;;;17.30;1.00;;;;;;5072007;28;20260;-78
2022/06/07 00:41:22;;;;;;;0.30;0.30;;;17.20;1.00;;;;;;5072317;28;20190;-78
2022/06/07 00:44:25;;;;;;;0.30;0.30;;;17.20;1.00;;;;;;5072449;28;20875;-79
2022/06/07 00:47:06;;;;;;;0.30;0.30;;;17.20;1.00;;;;;;5072756;28;20201;-78
2022/06/07 00:49:55;;;;;;;0.43;0.43;;;17.20;1.00;;;;;;5072366;28;20265;-79
2022/06/07 00:52:23;;;;;;;0.50;0.50;;;17.20;1.00;;;;;;5072752;28;20209;-79
2022/06/07 00:54:49;;;;;;;0.33;0.33;;;17.10;1.00;;;;;;5072547;28;20206;-80
2022/06/07 00:57:15;;;;;;;0.30;0.30;;;17.10;1.00;;;;;;5072685;28;20269;-79
2022/06/07 00:59:41;;;;;;;0.40;0.40;;;17.00;1.00;;;;;;5071982;28;20218;-79
2022/06/07 01:02:07;;;;;;;0.30;0.30;;;16.90;1.00;;;;;;5072389;28;20613;-80
2022/06/07 01:04:33;;;;;;;0.40;0.40;;;16.80;1.00;;;;;;5076329;28;20547;-80
2022/06/07 01:12:27;;;;;;;0.47;0.47;;;16.60;1.00;;;;;;5072307;28;20221;-78
2022/06/07 01:14:53;;;;;;;0.40;0.40;;;16.40;1.00;;;;;;5072547;28;20223;-78
2022/06/07 01:17:19;;;;;;;0.40;0.40;;;16.40;1.00;;;;;;5075962;28;20170;-77
2022/06/07 01:19:45;;;;;;;0.40;0.40;;;16.40;1.00;;;;;;5075241;28;20178;-77
2022/06/07 01:22:11;;;;;;;0.30;0.30;;;16.30;1.00;;;;;;5075787;28;20190;-77
2022/06/07 01:24:37;;;;;;;0.37;0.37;;;16.20;1.00;;;;;;5075844;28;20178;-78
2022/06/07 01:27:04;;;;;;;0.30;0.30;;;16.20;1.00;;;;;;5075832;28;20178;-78
2022/06/07 01:29:30;;;;;;;0.30;0.30;;;16.10;17.40;;;;;;5075570;28;20240;-78
2022/06/07 01:31:55;;;;;;;0.40;0.40;;;16.00;22.80;;;;;;5076245;28;20660;-77
2022/06/07 01:34:21;;;;;;;0.40;0.40;;;16.00;57.10;;;;;;5075907;28;20181;-77
2022/06/07 01:36:47;;;;;;;0.50;0.50;;;15.90;79.00;;;;;;5075375;28;20198;-77
2022/06/07 01:41:56;;;;;;;0.30;0.30;;;15.80;94.70;;;;;;5075833;28;20236;-77
2022/06/07 01:44:28;;;;;;;0.30;0.30;;;15.70;99.90;;;;;;5075393;28;20269;-77
2022/06/07 01:46:56;;;;;;;0.40;0.40;;;15.70;99.90;;;;;;5075552;28;20185;-78
2022/06/07 01:49:23;;;;;;;0.30;0.30;;;15.70;99.90;;;;;;5074999;28;20598;-76
2022/06/07 01:51:50;;;;;;;0.40;0.40;;;15.70;99.90;;;;;;5075082;28;20246;-77
2022/06/07 01:54:16;;;;;;;0.40;0.40;;;15.60;99.90;;;;;;5075198;28;20636;-78
2022/06/07 01:56:41;;;;;;;0.40;0.40;;;15.70;99.90;;;;;;5075500;28;20209;-78
2022/06/07 01:59:07;;;;;;;0.30;0.30;;;15.70;99.90;;;;;;5074577;28;20238;-78
2022/06/07 02:01:33;;;;;;;0.40;0.40;;;15.70;99.90;;;;;;5075285;28;20236;-77
2022/06/07 02:03:59;;;;;;;0.40;0.40;;;15.70;99.90;;;;;;5075525;28;20650;-77
2022/06/07 02:06:25;;;;;;;0.40;0.40;;;15.70;99.90;;;;;;5075483;28;20170;-78
2022/06/07 02:08:50;;;;;;;0.33;0.33;;;15.70;99.90;;;;;;5056714;28;20179;-78
2022/06/07 02:11:19;;;;;;;0.30;0.30;;;15.70;99.90;;;;;;5075265;28;20289;-77
2022/06/07 02:13:44;;;;;;;0.40;0.40;;;15.70;99.90;;;;;;5075489;28;20261;-78
2022/06/07 02:16:10;;;;;;;0.37;0.37;;;15.80;99.90;;;;;;5075077;28;20258;-77
2022/06/07 02:18:37;;;;;;;0.40;0.40;;;15.70;99.90;;;;;;5074538;28;20409;-78
2022/06/07 02:21:03;;;;;;;0.40;0.40;;;15.80;99.90;;;;;;5074387;28;20649;-77
2022/06/07 02:23:30;;;;;;;0.40;0.40;;;15.80;99.90;;;;;;5057549;28;20175;-77
2022/06/07 02:25:59;;;;;;;0.40;0.40;;;15.80;99.90;;;;;;5074459;28;20262;-77
2022/06/07 02:28:29;;;;;;;0.50;0.50;;;15.80;99.90;;;;;;5074304;28;20174;-77
2022/06/07 02:30:55;;;;;;;0.40;0.40;;;15.80;99.90;;;;;;5074800;28;20177;-77
2022/06/07 02:33:22;;;;;;;0.33;0.33;;;15.80;99.90;;;;;;5075269;28;20189;-77
2022/06/07 02:35:48;;;;;;;0.37;0.37;;;15.80;99.90;;;;;;5075425;28;20186;-78
2022/06/07 02:38:14;;;;;;;0.30;0.30;;;15.80;99.90;;;;;;5075161;28;20301;-78
2022/06/07 02:40:41;;;;;;;0.40;0.40;;;15.80;99.90;;;;;;5075094;28;20600;-78
2022/06/07 02:43:06;;;;;;;0.30;0.30;;;15.80;99.90;;;;;;5075714;28;20254;-78
2022/06/07 02:45:33;;;;;;;0.40;0.40;;;15.70;99.90;;;;;;5075260;28;20260;-78
2022/06/07 02:47:58;;;;;;;0.40;0.40;;;15.70;99.90;;;;;;5075793;28;20244;-79
2022/06/07 02:50:24;;;;;;;0.40;0.40;;;15.70;99.90;;;;;;5057544;28;20175;-78
2022/06/07 02:52:49;;;;;;;0.40;0.40;;;15.60;99.90;;;;;;5076428;28;20216;-78
2022/06/07 02:55:15;;;;;;;0.40;0.40;;;15.60;99.90;;;;;;5076623;28;20213;-78
2022/06/07 02:57:41;;;;;;;0.40;0.40;;;15.60;99.90;;;;;;5075754;28;20247;-78
2022/06/07 03:00:11;;;;;;;0.30;0.30;;;15.60;99.90;;;;;;5075417;28;20178;-79
2022/06/07 03:02:37;;;;;;;0.40;0.40;;;15.50;99.90;;;;;;5075902;28;20285;-78
2022/06/07 03:05:03;;;;;;;0.40;0.40;;;15.50;99.90;;;;;;5076424;28;20217;-79
2022/06/07 03:07:28;;;;;;;0.40;0.40;;;15.60;99.90;;;;;;5075435;28;20309;-78
2022/06/07 03:09:54;;;;;;;0.40;0.40;;;15.60;99.90;;;;;;5075025;28;20220;-78
2022/06/07 03:12:19;;;;;;;0.30;0.30;;;15.60;99.90;;;;;;5075388;28;20277;-78
2022/06/07 03:14:45;;;;;;;0.30;0.30;;;15.60;99.90;;;;;;5074344;28;20174;-78
2022/06/07 03:17:10;;;;;;;0.37;0.37;;;15.60;99.90;;;;;;5074148;28;20639;-79
2022/06/07 03:19:36;;;;;;;0.30;0.30;;;15.50;99.90;;;;;;5074048;28;20218;-78
2022/06/07 03:22:02;;;;;;;0.40;0.40;;;15.50;99.90;;;;;;5074845;28;20202;-78
2022/06/07 03:24:27;;;;;;;0.50;0.50;;;15.50;99.90;;;;;;5074834;28;20182;-78
2022/06/07 03:26:54;;;;;;;0.43;0.43;;;15.50;99.90;;;;;;5073872;28;20272;-78
2022/06/07 03:29:20;;;;;;;0.40;0.40;;;15.50;99.90;;;;;;5073554;28;20179;-78
2022/06/07 03:31:46;;;;;;;0.37;0.37;;;15.60;99.90;;;;;;5069871;28;20214;-79
2022/06/07 03:34:12;;;;;;;0.47;0.47;;;15.50;99.90;;;;;;5069276;28;20183;-78
2022/06/07 03:36:38;;;;;;;0.40;0.40;;;15.50;99.90;;;;;;5070786;28;20189;-78
2022/06/07 03:39:09;;;;;;;0.50;0.50;;;15.60;99.90;;;;;;5072812;28;20268;-78
2022/06/07 03:41:35;;;;;;;0.40;0.40;;;15.60;99.90;;;;;;5073889;28;20202;-78
2022/06/07 03:44:01;;;;;;;0.40;0.40;;;15.60;99.90;;;;;;5074026;28;20206;-78
2022/06/07 03:46:29;;;;;;;0.40;0.40;;;15.60;99.90;;;;;;5073878;28;20182;-78
2022/06/07 03:48:56;;;;;;;0.40;0.40;;;15.50;99.90;;;;;;5073195;28;20202;-79
2022/06/07 03:51:25;;;;;;;0.40;0.40;;;15.50;99.90;;;;;;5075378;28;20301;-78
2022/06/07 03:53:51;;;;;;;0.40;0.40;;;15.50;99.90;;;;;;5075594;28;20175;-78
2022/06/07 03:56:17;;;;;;;0.30;0.30;;;15.60;99.90;;;;;;5076431;28;20231;-78
2022/06/07 03:58:44;;;;;;;0.30;0.30;;;15.60;99.90;;;;;;5076667;28;20206;-78
2022/06/07 04:01:15;;;;;;;0.40;0.40;;;15.60;99.90;;;;;;5072815;28;20198;-78
2022/06/07 04:03:44;;;;;;;0.40;0.40;;;15.60;99.90;;;;;;5075526;28;20175;-79
2022/06/07 04:06:32;;;;;;;0.40;0.40;;;15.60;99.90;;;;;;5077576;28;20251;-79
2022/06/07 04:08:58;;;;;;;0.40;0.40;;;15.70;99.90;;;;;;5076447;28;20174;-78
2022/06/07 04:11:26;;;;;;;0.43;0.43;;;15.70;99.90;;;;;;5077360;28;20190;-78
2022/06/07 04:13:53;;;;;;;0.40;0.40;;;15.70;99.90;;;;;;5076386;28;20325;-79
2022/06/07 04:16:22;;;;;;;0.40;0.40;;;15.70;99.90;;;;;;5072286;28;20203;-79
2022/06/07 04:18:48;;;;;;;0.30;0.30;;;15.70;99.90;;;;;;5062462;28;20294;-78
2022/06/07 04:21:14;;;;;;;0.43;0.43;;;15.80;99.90;;;;;;5064071;28;20201;-78
2022/06/07 04:23:40;;;;;;;0.40;0.40;;;15.80;99.90;;;;;;5065276;28;20183;-78
2022/06/07 04:26:08;;;;;;;0.47;0.47;;;15.70;99.90;;;;;;5065315;28;20199;-79
2022/06/07 04:28:34;;;;;;;0.40;0.40;;;15.70;99.90;;;;;;5062249;28;20178;-78
2022/06/07 04:31:00;;;;;;;0.30;0.30;;;15.60;99.90;;;;;;5055087;28;20202;-79
2022/06/07 04:33:26;;;;;;;0.40;0.40;;;15.60;99.90;;;;;;5052733;28;20651;-79
2022/06/07 04:35:51;;;;;;;0.30;0.30;;;15.50;99.90;;;;;;5054405;28;20174;-78
2022/06/07 04:38:17;;;;;;;0.40;0.40;;;15.40;99.90;;;;;;5054366;28;20226;-79
2022/06/07 04:40:43;;;;;;;0.40;0.40;;;15.50;99.90;;;;;;5052618;28;20183;-79
2022/06/07 04:43:11;;;;;;;0.40;0.40;;;15.50;99.90;;;;;;5052921;28;20191;-79
2022/06/07 04:45:38;;;;;;;0.40;0.40;;;15.50;99.90;;;;;;5053467;28;20186;-80
2022/06/07 04:48:08;;;;;;;0.40;0.40;;;15.40;99.90;;;;;;5053559;28;20191;-80
2022/06/07 04:50:34;;;;;;;0.40;0.40;;;15.40;99.90;;;;;;5053445;28;20184;-80
2022/06/07 04:53:00;;;;;;;0.40;0.40;;;15.40;99.90;;;;;;5064462;28;20203;-77
2022/06/07 04:55:26;;;;;;;0.40;0.40;;;15.50;99.90;;;;;;5063779;28;20175;-78
2022/06/07 04:57:52;;;;;;;0.40;0.40;;;15.60;99.90;;;;;;5066796;28;20682;-78
2022/06/07 05:00:18;;;;;;;0.40;0.40;;;15.60;99.90;;;;;;5065228;28;20193;-79
2022/06/07 05:02:45;;;;;;;0.40;0.40;;;15.60;99.90;;;;;;5064918;28;20194;-80
2022/06/07 05:05:13;;;;;;;0.37;0.37;;;15.60;99.90;;;;;;5065557;28;20212;-77
2022/06/07 05:07:39;;;;;;;0.37;0.37;;;15.60;99.90;;;;;;5070357;28;20187;-77
2022/06/07 05:10:07;;;;;;;0.30;0.30;;;15.60;99.90;;;;;;5065847;28;20175;-78
2022/06/07 05:12:32;;;;;;;0.40;0.40;;;15.70;99.90;;;;;;5065322;28;20210;-77
2022/06/07 05:14:59;;;;;;;0.50;0.50;;;15.80;99.90;;;;;;5071201;28;20182;-79
2022/06/07 05:17:25;;;;;;;0.40;0.40;;;15.80;99.90;;;;;;5065092;28;20186;-78
2022/06/07 05:19:50;;;;;;;0.50;0.50;;;15.80;99.90;;;;;;5066444;28;20179;-77
2022/06/07 05:22:16;;;;;;;0.40;0.40;;;15.80;99.90;;;;;;5066745;28;20226;-77
2022/06/07 05:24:41;;;;;;;0.30;0.30;;;15.80;99.90;;;;;;5065488;28;20261;-78
2022/06/07 05:27:08;;;;;;;0.40;0.40;;;15.80;99.90;;;;;;5067094;28;20224;-77
2022/06/07 05:29:55;;;;;;;0.40;0.40;;;15.80;99.90;;;;;;5076127;28;20235;-78
2022/06/07 05:32:21;;;;;;;0.40;0.40;;;15.80;99.90;;;;;;5075910;28;20237;-78
2022/06/07 05:34:48;;;;;;;0.30;0.30;;;15.80;99.90;;;;;;5076499;28;20179;-78
2022/06/07 05:37:16;;;;;;;0.40;0.40;;;15.90;99.90;;;;;;5076257;28;20592;-78
2022/06/07 05:39:42;;;;;;;0.40;0.40;;;15.80;99.90;;;;;;5068403;28;20629;-78
2022/06/07 05:42:11;;;;;;;0.40;0.40;;;15.90;99.90;;;;;;5069162;28;20203;-76
2022/06/07 05:44:36;;;;;;;0.30;0.30;;;15.90;99.90;;;;;;5065945;28;20551;-76
2022/06/07 05:47:03;;;;;;;0.43;0.43;;;15.90;99.90;;;;;;5066336;28;20227;-77
2022/06/07 05:49:29;;;;;;;0.33;0.33;;;16.00;99.90;;;;;;5065466;28;20185;-77
2022/06/07 05:51:54;;;;;;;0.40;0.40;;;16.10;99.90;;;;;;5064368;28;20535;-78
2022/06/07 05:54:20;;;;;;;0.50;0.50;;;16.10;99.90;;;;;;5065619;28;20178;-79
2022/06/07 05:56:46;;;;;;;0.40;0.40;;;16.10;99.90;;;;;;5066835;28;20703;-78
2022/06/07 05:59:11;;;;;;;0.50;0.50;;;16.30;99.90;;;;;;5075805;28;20334;-79
2022/06/07 06:01:37;;;;;;;0.40;0.40;;;16.50;99.90;;;;;;5085177;28;20202;-84
2022/06/07 06:04:03;;;;;;;0.40;0.40;;;16.60;99.90;;;;;;5088508;28;20174;-80
2022/06/07 06:06:30;;;;;;;0.30;0.30;;;16.70;26.50;;;;;;5093976;28;20189;-79
2022/06/07 06:11:40;;;;;;;0.40;0.40;;;16.60;56.00;;;;;;5097440;28;20189;-79
2022/06/07 06:14:05;;;;;;;0.40;0.40;;;16.70;99.90;;;;;;5096575;28;20158;-79
2022/06/07 06:16:31;;;;;;;0.40;0.40;;;16.80;93.20;;;;;;5091564;28;20269;-79
2022/06/07 06:18:59;;;;;;;0.40;0.40;;;16.70;95.10;;;;;;5087213;28;20241;-77
2022/06/07 06:21:28;;;;;;;0.50;0.50;;;16.80;38.30;;;;;;5088150;28;20179;-79
2022/06/07 06:23:57;;;;;;;0.47;0.47;;;16.90;22.80;;;;;;5094769;28;20182;-78
2022/06/07 06:26:22;;;;;;;0.40;0.40;;;16.90;1.00;;;;;;5085337;28;20211;-79
2022/06/07 06:28:48;;;;;;;0.40;0.40;;;17.00;13.60;;;;;;5085679;28;20183;-79
2022/06/07 06:31:15;;;;;;;0.30;0.30;;;17.10;1.00;;;;;;5083616;28;20195;-79
2022/06/07 06:33:48;;;;;;;0.40;0.40;;;17.20;1.00;;;;;;5093164;28;20193;-79
2022/06/07 06:36:16;;;;;;;0.40;0.40;;;17.20;1.00;;;;;;5091144;28;20175;-78
2022/06/07 06:38:43;;;;;;;0.50;0.50;;;17.20;1.00;;;;;;5090524;28;20213;-79
2022/06/07 06:41:17;;;;;;;0.40;0.40;;;17.20;1.00;;;;;;5083507;28;20194;-79
2022/06/07 06:43:44;;;;;;;0.30;0.30;;;17.20;1.00;;;;;;5073020;28;20166;-80
2022/06/07 06:46:16;;;;;;;0.50;0.50;;;17.30;1.00;;;;;;5082903;28;20379;-79
2022/06/07 06:48:43;;;;;;;0.40;0.40;;;17.50;1.00;;;;;;5095464;28;20193;-79
2022/06/07 06:51:11;;;;;;;0.30;0.30;;;17.70;1.00;;;;;;5073589;28;20209;-80
2022/06/07 06:53:37;;;;;;;0.30;0.30;;;17.90;1.00;;;;;;5073070;28;20247;-79
2022/06/07 06:56:04;;;;;;;0.30;0.30;;;18.30;1.00;;;;;;5064756;28;20178;-80
2022/06/07 06:58:29;;;;;;;0.40;0.40;;;18.50;1.00;;;;;;5066351;28;20637;-80
2022/06/07 07:01:04;;;;;;;0.30;0.30;;;18.50;99.90;;;;;;5058232;28;20174;-79
2022/06/07 07:03:31;;;;;;;0.30;0.30;;;18.50;1.00;;;;;;5075872;28;20178;-79
2022/06/07 07:05:56;;;;;;;0.30;0.30;;;18.40;1.00;;;;;;5076090;28;20175;-79
2022/06/07 07:08:26;;;;;;;0.30;0.30;;;18.50;99.90;;;;;;5075959;28;20197;-79
2022/06/07 07:11:14;;;;;;;0.30;0.30;;;18.60;99.90;;;;;;5075114;28;20521;-78
2022/06/07 07:13:39;;;;;;;0.40;0.40;;;18.80;1.00;;;;;;5074997;28;20635;-79
2022/06/07 07:16:11;;;;;;;0.40;0.40;;;19.00;1.00;;;;;;5075413;28;20175;-79
2022/06/07 07:18:38;;;;;;;0.40;0.40;;;18.90;1.00;;;;;;5075770;28;20665;-80
2022/06/07 07:21:11;;;;;;;0.30;0.30;;;18.80;99.90;;;;;;5074493;28;20178;-79
2022/06/07 07:23:36;;;;;;;0.50;0.50;;;18.90;1.00;;;;;;5068623;28;20214;-80
2022/06/07 07:26:08;;;;;;;0.40;0.40;;;18.90;1.00;;;;;;5074505;28;20175;-80
2022/06/07 07:28:35;;;;;;;0.30;0.30;;;19.00;1.00;;;;;;5074947;28;20270;-80
2022/06/07 07:31:04;;;;;;;0.30;0.30;;;19.20;1.00;;;;;;5075225;28;20174;-80
2022/06/07 07:33:31;;;;;;;0.30;0.30;;;19.40;1.00;;;;;;5075533;28;20632;-80
2022/06/07 07:35:59;;;;;;;0.40;0.40;;;19.50;1.00;;;;;;5095577;28;20288;-81
2022/06/07 07:38:25;;;;;;;0.30;0.30;;;19.70;1.00;;;;;;5095590;28;20209;-80
2022/06/07 07:40:51;;;;;;;0.30;0.30;;;19.90;2.20;;;;;;5095209;28;20172;-80
2022/06/07 07:43:17;;;;;;;0.30;0.30;;;20.20;1.00;;;;;;5078494;28;20180;-79
2022/06/07 07:45:44;;;;;;;0.30;0.30;;;20.30;99.90;;;;;;5096609;28;20176;-79
2022/06/07 07:48:10;;;;;;;0.30;0.30;;;20.30;99.90;;;;;;5096798;28;20194;-80
2022/06/07 07:50:37;;;;;;;0.40;0.40;;;20.10;1.00;;;;;;5081047;28;20635;-79
2022/06/07 07:53:02;;;;;;;0.40;0.40;;;20.10;1.00;;;;;;5076494;28;20186;-80
2022/06/07 07:55:28;;;;;;;0.40;0.40;;;20.10;1.00;;;;;;5076153;28;20198;-79
2022/06/07 07:57:54;;;;;;;0.40;0.40;;;19.90;1.00;;;;;;5055721;28;20210;-79
2022/06/07 08:00:20;;;;;;;0.30;0.30;;;19.70;1.00;;;;;;5054631;28;20175;-79
2022/06/07 08:02:45;;;;;;;0.33;0.33;;;19.60;99.90;;;;;;5055300;28;20710;-81
2022/06/07 08:05:11;;;;;;;0.30;0.30;;;19.70;1.00;;;;;;5054951;28;20171;-80
2022/06/07 08:07:36;;;;;;;0.40;0.40;;;20.20;1.00;;;;;;5055419;28;20175;-80
2022/06/07 08:10:04;;;;;;;0.30;0.30;;;20.50;1.00;;;;;;5053981;28;20176;-79
2022/06/07 08:12:30;;;;;;;0.30;0.30;;;20.60;1.00;;;;;;5054955;28;20225;-80
2022/06/07 08:14:55;;;;;;;0.30;0.30;;;21.00;99.90;;;;;;5055309;28;20175;-79
2022/06/07 08:17:21;;;;;;;0.30;0.30;;;20.80;99.90;;;;;;5055981;28;20179;-80
2022/06/07 08:19:46;;;;;;;0.40;0.40;;;21.20;99.90;;;;;;5054691;28;20210;-80
2022/06/07 08:22:12;;;;;;;0.30;0.30;;;21.40;86.40;;;;;;5072048;28;20205;-79
2022/06/07 08:24:38;;;;;;;0.30;0.30;;;21.30;74.00;;;;;;5056019;28;20182;-79
2022/06/07 08:27:04;;;;;;;0.33;0.33;;;21.40;99.90;;;;;;5074747;28;20528;-80
2022/06/07 08:29:29;;;;;;;0.30;0.30;;;21.20;1.00;;;;;;5073979;28;20210;-80
2022/06/07 08:31:55;;;;;;;0.20;0.20;;;20.90;16.50;;;;;;5076842;28;20197;-78
2022/06/07 08:39:49;;;;;;;0.33;0.33;;;19.70;1.00;;;;;;5066447;28;20237;-79
2022/06/07 08:42:18;;;;;;;0.40;0.40;;;19.60;99.90;;;;;;5073914;28;20594;-80
2022/06/07 08:44:55;;;;;;;0.30;0.30;;;20.30;1.00;;;;;;5064546;28;20247;-79
2022/06/07 08:47:38;;;;;;;0.30;0.30;;;21.00;1.00;;;;;;5066090;28;20269;-80
2022/06/07 08:50:23;;;;;;;0.30;0.30;;;21.30;99.90;;;;;;5063240;28;20585;-80
2022/06/07 08:52:55;;;;;;;0.30;0.30;;;21.10;99.90;;;;;;5067191;28;20198;-78
2022/06/07 08:55:32;;;;;;;0.40;0.40;;;20.90;99.90;;;;;;5062070;28;20626;-79
2022/06/07 08:58:00;;;;;;;0.30;0.30;;;20.60;99.90;;;;;;5060963;28;20290;-79
2022/06/07 09:00:33;;;;;;;0.30;0.30;;;20.30;99.90;;;;;;5052021;28;20674;-80
2022/06/07 09:03:17;;;;;;;0.43;0.43;;;20.10;99.90;;;;;;5072859;28;20199;-78
2022/06/07 09:05:42;;;;;;;0.40;0.40;;;19.90;1.00;;;;;;5072951;28;20209;-78
2022/06/07 09:08:12;;;;;;;0.30;0.30;;;19.90;99.90;;;;;;5073485;28;20177;-79
2022/06/07 09:13:25;;;;;;;0.40;0.40;;;20.30;1.00;;;;;;5073556;28;20197;-80
2022/06/07 09:15:54;;;;;;;0.37;0.37;;;20.50;99.90;;;;;;5073003;28;20664;-78
2022/06/07 09:18:24;;;;;;;0.30;0.30;;;20.40;99.90;;;;;;5073407;28;20242;-78
2022/06/07 09:20:56;;;;;;;0.33;0.33;;;21.20;99.90;;;;;;5073193;28;20205;-79
2022/06/07 09:23:39;;;;;;;0.33;0.33;;;21.70;1.00;;;;;;5073584;28;20217;-79
2022/06/07 09:26:38;;;;;;;0.40;0.40;;;21.60;1.00;;;;;;5054315;28;20213;-79
2022/06/07 09:29:13;;;;;;;0.40;0.40;;;21.20;1.00;;;;;;5052690;28;20534;-78
2022/06/07 09:31:41;;;;;;;0.40;0.40;;;20.70;99.90;;;;;;5053489;28;20191;-78
2022/06/07 09:34:15;;;;;;;0.33;0.33;;;20.40;99.90;;;;;;5053922;28;20292;-78
2022/06/07 09:36:43;;;;;;;0.40;0.40;;;20.20;99.90;;;;;;5075017;28;20179;-79
2022/06/07 09:39:16;;;;;;;0.30;0.30;;;20.10;1.00;;;;;;5076379;28;20309;-79
2022/06/07 09:41:53;;;;;;;0.30;0.30;;;20.40;1.00;;;;;;5077263;28;20197;-78
2022/06/07 09:44:35;;;;;;;0.40;0.40;;;20.70;99.90;;;;;;5077082;28;20219;-78
2022/06/07 09:47:19;;;;;;;0.37;0.37;;;20.80;99.90;;;;;;5076266;28;20174;-79
2022/06/07 09:49:53;;;;;;;0.30;0.30;;;20.80;1.00;;;;;;5076270;28;20202;-78
2022/06/07 09:52:36;;;;;;;0.40;0.40;;;20.60;99.90;;;;;;5076843;28;20515;-79
2022/06/07 09:55:10;;;;;;;0.30;0.30;;;20.50;99.90;;;;;;5100946;23;20217;-79
2022/06/07 09:57:42;;;;;;;0.40;0.40;;;20.50;99.90;;;;;;5105016;28;20186;-79
2022/06/07 10:00:32;;;;;;;0.40;0.40;;;20.20;99.90;;;;;;5105718;28;20187;-79
2022/06/07 10:03:24;;;;;;;0.40;0.40;;;20.10;99.90;;;;;;5081886;28;20217;-77
2022/06/07 10:06:09;;;;;;;0.40;0.40;;;20.00;99.90;;;;;;5066563;28;20181;-80
2022/06/07 10:08:54;;;;;;;0.30;0.30;;;20.00;99.90;;;;;;5065983;28;20175;-78
2022/06/07 10:11:43;;;;;;;0.30;0.30;;;20.20;99.90;;;;;;5063129;28;20241;-77
2022/06/07 10:14:37;;;;;;;0.40;0.40;;;20.40;99.90;;;;;;5077830;28;20678;-76
2022/06/07 10:17:12;;;;;;;0.30;0.30;;;20.60;32.90;;;;;;5079219;28;20174;-76
2022/06/07 10:19:52;;;;;;;0.50;0.50;;;21.30;1.00;;;;;;5084955;28;20229;-77
2022/06/07 10:22:46;;;;;;;0.40;0.40;;;22.40;1.00;;;;;;5084675;28;20194;-78
2022/06/07 10:25:29;;;;;;;0.30;0.30;;;22.50;1.00;;;;;;5082031;28;20177;-77
2022/06/07 10:28:12;;;;;;;0.30;0.30;;;22.00;1.00;;;;;;5090164;28;20170;-77
2022/06/07 10:31:00;;;;;;;0.30;0.30;;;21.30;1.00;;;;;;5071140;28;20183;-78
2022/06/07 10:34:04;;;;;;;0.30;0.30;;;21.00;1.00;;;;;;5074697;28;20234;-77
2022/06/07 10:37:05;;;;;;;0.40;0.40;;;21.60;1.00;;;;;;5010743;28;20176;-77
2022/06/07 10:39:50;;;;;;;0.30;0.30;;;21.90;1.00;;;;;;5061767;28;20209;-79
2022/06/07 10:42:22;;;;;;;0.40;0.40;;;22.00;1.00;;;;;;5073480;28;20675;-77
2022/06/07 10:45:14;;;;;;;0.33;0.33;;;21.80;1.00;;;;;;5079343;28;20186;-76
2022/06/07 10:48:03;;;;;;;0.40;0.40;;;21.70;1.00;;;;;;5075811;28;20167;-76
2022/06/07 10:50:36;;;;;;;0.30;0.30;;;21.60;1.00;;;;;;5081351;28;20205;-78
2022/06/07 10:53:10;;;;;;;0.30;0.30;;;21.40;1.00;;;;;;5073093;28;20205;-77
2022/06/07 10:55:45;;;;;;;0.30;0.30;;;21.30;1.00;;;;;;5077263;28;20740;-77
2022/06/07 10:58:35;;;;;;;0.30;0.30;;;21.10;1.00;;;;;;5076521;28;20202;-77
2022/06/07 11:01:26;;;;;;;0.40;0.40;;;21.10;1.00;;;;;;5076342;28;20190;-78
2022/06/07 11:03:58;;;;;;;0.30;0.30;;;21.10;1.00;;;;;;5070580;28;20174;-78
2022/06/07 11:09:31;;;;;;;0.40;0.40;;;20.90;1.00;;;;;;5074994;28;20625;-79
2022/06/07 11:12:19;;;;;;;0.37;0.37;;;20.80;1.00;;;;;;5075489;28;20250;-78
2022/06/07 11:15:06;;;;;;;0.50;0.50;;;20.70;1.00;;;;;;5079724;28;20197;-78
2022/06/07 11:17:50;;;;;;;0.30;0.30;;;20.70;1.00;;;;;;5077595;28;20183;-77
2022/06/07 11:20:21;;;;;;;0.30;0.30;;;20.90;1.00;;;;;;5078024;28;20473;-78
2022/06/07 11:23:05;;;;;;;0.30;0.30;;;21.60;1.00;;;;;;5078285;28;20285;-77
2022/06/07 11:25:39;;;;;;;0.40;0.40;;;21.80;1.00;;;;;;5076654;28;20194;-79
2022/06/07 11:28:16;;;;;;;0.40;0.40;;;21.80;1.00;;;;;;5075877;28;20174;-78
2022/06/07 11:30:45;;;;;;;0.30;0.30;;;21.80;1.00;;;;;;5079541;28;20174;-77
2022/06/07 11:33:36;;;;;;;0.40;0.40;;;21.70;1.00;;;;;;5077504;28;20289;-77
2022/06/07 11:36:04;;;;;;;0.40;0.40;;;21.80;1.00;;;;;;5073715;28;20174;-77
2022/06/07 11:38:32;;;;;;;0.40;0.40;;;22.00;1.00;;;;;;5070538;28;20289;-76
2022/06/07 11:44:10;;;;;;;0.30;0.30;;;22.10;1.00;;;;;;5071592;28;20192;-76
2022/06/07 11:46:35;;;;;;;0.40;0.40;;;22.00;1.00;;;;;;5079484;28;20663;-79
2022/06/07 11:51:56;;;;;;;0.37;0.37;;;22.10;1.00;;;;;;5078731;28;20195;-77
2022/06/07 11:54:36;;;;;;;0.37;0.37;;;22.00;1.00;;;;;;5076897;28;20217;-78
2022/06/07 11:57:27;;;;;;;0.40;0.40;;;21.70;1.00;;;;;;5057894;28;20550;-77
2022/06/07 11:59:55;;;;;;;0.40;0.40;;;21.60;1.00;;;;;;5059967;28;20306;-78
2022/06/07 12:02:25;;;;;;;0.30;0.30;;;21.50;1.00;;;;;;5059729;28;20601;-77
2022/06/07 12:04:59;;;;;;;0.40;0.40;;;21.50;1.00;;;;;;5059083;28;20185;-78
2022/06/07 12:07:50;;;;;;;0.33;0.33;;;21.50;1.00;;;;;;5058904;28;20189;-78
2022/06/07 12:10:18;;;;;;;0.30;0.30;;;21.40;1.00;;;;;;5061819;28;20643;-78
2022/06/07 12:12:54;;;;;;;0.30;0.30;;;21.20;1.00;;;;;;5071084;28;20622;-78
2022/06/07 12:15:31;;;;;;;0.30;0.30;;;21.20;1.00;;;;;;5079093;28;20273;-78
2022/06/07 12:18:00;;;;;;;0.30;0.30;;;21.10;1.00;;;;;;5075700;28;20217;-77
2022/06/07 12:20:28;;;;;;;0.30;0.30;;;21.20;1.00;;;;;;5072049;28;20175;-77
2022/06/07 12:22:57;;;;;;;0.40;0.40;;;21.30;1.00;;;;;;5078974;28;20198;-78
2022/06/07 12:25:24;;;;;;;0.30;0.30;;;21.40;1.00;;;;;;5077643;28;20183;-77
2022/06/07 12:27:53;;;;;;;0.40;0.40;;;21.60;1.00;;;;;;5079961;28;20186;-79
2022/06/07 12:30:28;;;;;;;0.30;0.30;;;21.90;1.00;;;;;;5080045;28;20189;-78
2022/06/07 12:32:55;;;;;;;0.30;0.30;;;22.30;1.00;;;;;;5076008;28;20228;-79
2022/06/07 12:35:27;;;;;;;0.40;0.40;;;22.70;1.00;;;;;;5080624;28;20175;-77
2022/06/07 12:38:00;;;;;;;0.30;0.30;;;23.00;1.00;;;;;;5080310;28;20651;-78
2022/06/07 12:40:29;;;;;;;0.40;0.40;;;23.30;1.00;;;;;;5080648;28;20186;-77
2022/06/07 12:42:54;;;;;;;0.20;0.20;;;23.50;1.00;;;;;;5081258;28;20667;-77
2022/06/07 12:45:25;;;;;;;0.50;0.50;;;23.80;1.00;;;;;;5079302;28;20182;-78
2022/06/07 12:48:20;;;;;;;0.27;0.27;;;24.00;1.00;;;;;;5083629;28;20170;-77
2022/06/07 12:50:47;;;;;;;0.40;0.40;;;24.10;1.00;;;;;;5076043;28;20231;-77
2022/06/07 12:53:27;;;;;;;0.40;0.40;;;24.30;1.00;;;;;;5077248;28;20607;-77
2022/06/07 12:56:15;;;;;;;0.30;0.30;;;24.30;1.00;;;;;;5076592;28;20186;-76
2022/06/07 12:58:49;;;;;;;0.37;0.37;;;24.30;1.00;;;;;;5077213;28;20233;-76
2022/06/07 13:01:37;;;;;;;0.40;0.40;;;24.40;1.00;;;;;;5083605;28;20190;-77
2022/06/07 13:04:29;;;;;;;0.30;0.30;;;24.40;1.00;;;;;;5065937;28;20176;-77
2022/06/07 13:06:57;;;;;;;0.30;0.30;;;24.40;1.00;;;;;;5064104;28;20445;-77
2022/06/07 13:09:23;;;;;;;0.30;0.30;;;24.30;1.00;;;;;;5067082;28;20448;-77
2022/06/07 13:11:49;;;;;;;0.40;0.40;;;24.30;1.00;;;;;;5070720;28;20193;-77
2022/06/07 13:14:16;;;;;;;0.40;0.40;;;24.30;1.00;;;;;;5067545;28;20185;-77
2022/06/07 13:16:46;;;;;;;0.50;0.50;;;24.20;1.00;;;;;;5064264;28;20199;-78
2022/06/07 13:19:14;;;;;;;0.40;0.40;;;24.10;1.00;;;;;;5065755;28;20617;-77
2022/06/07 13:22:03;;;;;;;0.40;0.40;;;24.20;1.00;;;;;;5067603;28;20219;-76
2022/06/07 13:24:46;;;;;;;0.30;0.30;;;24.40;1.00;;;;;;5066375;28;20190;-77
2022/06/07 13:27:40;;;;;;;0.40;0.40;;;24.30;1.00;;;;;;5065583;28;20238;-77
2022/06/07 13:30:27;;;;;;;0.30;0.30;;;24.40;1.00;;;;;;5065671;28;20183;-77
2022/06/07 13:33:11;;;;;;;0.40;0.40;;;24.40;1.00;;;;;;5062298;28;20195;-77
2022/06/07 13:35:50;;;;;;;0.40;0.40;;;24.30;1.00;;;;;;5065445;28;20206;-77
2022/06/07 13:38:28;;;;;;;0.30;0.30;;;24.20;1.00;;;;;;5067445;28;20683;-77
2022/06/07 13:41:11;;;;;;;0.40;0.40;;;24.60;1.00;;;;;;5069647;28;20174;-78